Terminal Aerodrome Forecast
Issued by NWS Rapid City, SD

Home | Current Version | Previous Version | Graphics & Text | Print | Product List | Glossary On
Versions: 1 2 3 4 5 6 7 8 9 10 11 12 13 14 15 16 17 18 19 20 21 22
000
FTUS43 KUNR 230300 AAC
TAFRAP
TAF AMD
KRAP 230321Z 2303/2324 11011KT P6SM VCTS SCT100CB OVC200
      TEMPO 2303/2305 4SM TSRA BKN050CB
     FM230700 17007KT P6SM BKN250
     FM231900 14010G20KT P6SM SCT250=

USA.gov is the U.S. government's official web portal to all federal, state and local government web resources and services.